Time;durP1;ratioP1;P1;durP2;ratioP2;P2;SDS_P1;SDS_P2;PMS_P1;PMS_P2;Temp;Humidity;BMP_temperature;BMP_pressure;BME280_temperature;BME280_humidity;BME280_pressure;Samples;Min_cycle;Max_cycle;Signal;HPM_P1;HPM_P2
2022/11/12 00:00:37;;;;;;;20.17;14.27;;;8.50;99.90;;;;;;5060389;28;20226;-88
2022/11/12 00:03:07;;;;;;;16.37;14.33;;;8.40;99.90;;;;;;5057196;28;20237;-88
2022/11/12 00:05:33;;;;;;;17.10;13.93;;;8.40;99.90;;;;;;5057818;28;20202;-88
2022/11/12 00:08:00;;;;;;;18.33;14.23;;;8.50;99.90;;;;;;5060176;28;20191;-89
2022/11/12 00:10:28;;;;;;;19.07;14.27;;;8.60;99.90;;;;;;5058026;28;20206;-88
2022/11/12 00:12:58;;;;;;;16.77;13.53;;;8.50;99.90;;;;;;5060929;28;20226;-90
2022/11/12 00:15:25;;;;;;;18.43;13.93;;;8.60;99.90;;;;;;5058189;28;20198;-91
2022/11/12 00:17:52;;;;;;;22.02;19.55;;;8.50;99.90;;;;;;5059192;28;20487;-90
2022/11/12 00:20:21;;;;;;;20.17;15.20;;;8.70;99.90;;;;;;5063723;28;20190;-89
2022/11/12 00:22:47;;;;;;;15.43;13.80;;;8.70;99.90;;;;;;5061214;28;20195;-88
2022/11/12 00:25:14;;;;;;;17.20;13.60;;;8.60;99.90;;;;;;5059759;28;20202;-88
2022/11/12 00:27:41;;;;;;;19.00;14.43;;;8.70;99.90;;;;;;5059712;28;20209;-88
2022/11/12 00:30:09;;;;;;;19.40;14.70;;;8.60;99.90;;;;;;5059717;28;20206;-88
2022/11/12 00:32:37;;;;;;;15.00;13.30;;;8.60;99.90;;;;;;5058629;28;20590;-89
2022/11/12 00:35:04;;;;;;;19.50;13.77;;;8.50;99.90;;;;;;5062101;28;20225;-90
2022/11/12 00:37:32;;;;;;;20.60;12.83;;;8.50;99.90;;;;;;5060045;28;20212;-89
2022/11/12 00:39:59;;;;;;;19.70;13.10;;;8.40;99.90;;;;;;5057234;28;20194;-91
2022/11/12 00:42:27;;;;;;;19.00;13.50;;;8.60;99.90;;;;;;5054917;28;20207;-90
2022/11/12 00:44:54;;;;;;;18.03;13.23;;;8.40;99.90;;;;;;5053926;28;20240;-91
2022/11/12 00:47:21;;;;;;;15.07;12.70;;;8.40;99.90;;;;;;5053604;28;20206;-90
2022/11/12 00:49:48;;;;;;;17.37;12.47;;;8.30;99.90;;;;;;5053772;28;20201;-90
2022/11/12 00:52:15;;;;;;;14.57;12.97;;;8.30;99.90;;;;;;5053567;28;20234;-89
2022/11/12 00:54:49;;;;;;;16.20;12.67;;;8.30;99.90;;;;;;5053670;28;20186;-90
2022/11/12 00:57:19;;;;;;;17.30;12.53;;;8.40;99.90;;;;;;5053389;28;20576;-90
2022/11/12 00:59:46;;;;;;;16.27;12.47;;;8.40;99.90;;;;;;5053300;28;20199;-88
2022/11/12 01:02:15;;;;;;;15.33;12.63;;;8.40;99.90;;;;;;5053260;28;20206;-90
2022/11/12 01:04:43;;;;;;;15.57;12.40;;;8.50;99.90;;;;;;5053107;28;20213;-90
2022/11/12 01:07:14;;;;;;;19.00;13.17;;;8.40;99.90;;;;;;5056262;28;20226;-89
2022/11/12 01:09:43;;;;;;;17.60;12.67;;;8.50;99.90;;;;;;5057369;28;20202;-91
2022/11/12 01:12:11;;;;;;;16.70;12.70;;;8.40;99.90;;;;;;5056293;28;20238;-91
2022/11/12 01:14:38;;;;;;;15.83;12.07;;;8.40;99.90;;;;;;5057001;28;20646;-89
2022/11/12 01:17:05;;;;;;;18.77;12.27;;;8.30;99.90;;;;;;5056943;28;20206;-90
2022/11/12 01:19:33;;;;;;;17.77;13.33;;;8.40;99.90;;;;;;5057611;28;20222;-90
2022/11/12 01:22:01;;;;;;;14.93;12.27;;;8.40;99.90;;;;;;5057079;28;20206;-90
2022/11/12 01:24:30;;;;;;;18.73;12.67;;;8.40;99.90;;;;;;5056964;28;20190;-91
2022/11/12 01:26:57;;;;;;;17.27;12.80;;;8.40;99.90;;;;;;5056678;28;20221;-90
2022/11/12 01:29:26;;;;;;;16.07;12.50;;;8.40;99.90;;;;;;5056774;28;20194;-91
2022/11/12 01:31:55;;;;;;;17.87;13.13;;;8.40;99.90;;;;;;5056335;28;20237;-90
2022/11/12 01:34:22;;;;;;;16.27;12.70;;;8.50;99.90;;;;;;5056496;28;20195;-90
2022/11/12 01:36:55;;;;;;;13.80;12.23;;;8.40;99.90;;;;;;5056665;28;20195;-89
2022/11/12 01:39:25;;;;;;;18.03;12.13;;;8.40;99.90;;;;;;5056170;28;20213;-89
2022/11/12 01:41:52;;;;;;;17.40;11.87;;;8.40;99.90;;;;;;5056290;28;20197;-90
2022/11/12 01:44:21;;;;;;;16.70;12.63;;;8.40;99.90;;;;;;5056772;28;20198;-90
2022/11/12 01:47:06;;;;;;;16.40;12.43;;;8.40;99.90;;;;;;5056878;28;20210;-90
2022/11/12 01:49:41;;;;;;;16.13;11.37;;;8.40;99.90;;;;;;5056369;28;20213;-90
2022/11/12 01:52:17;;;;;;;18.10;12.03;;;8.40;99.90;;;;;;5056366;28;20237;-90
2022/11/12 01:54:48;;;;;;;14.10;11.83;;;8.40;99.90;;;;;;5056073;28;20202;-90
2022/11/12 01:57:17;;;;;;;17.73;12.20;;;8.40;99.90;;;;;;5056339;28;20225;-88
2022/11/12 01:59:46;;;;;;;18.97;12.27;;;8.40;99.90;;;;;;5055839;28;20202;-89
2022/11/12 02:02:14;;;;;;;14.10;11.77;;;8.30;99.90;;;;;;5055618;28;20539;-90
2022/11/12 02:04:42;;;;;;;21.00;12.70;;;8.30;99.90;;;;;;5038140;28;20198;-89
2022/11/12 02:07:10;;;;;;;14.10;11.80;;;8.30;99.90;;;;;;5055312;28;20223;-88
2022/11/12 02:09:37;;;;;;;16.53;11.23;;;8.30;99.90;;;;;;5055601;28;20210;-88
2022/11/12 02:12:05;;;;;;;14.13;11.40;;;8.30;99.90;;;;;;5055352;28;20218;-90
2022/11/12 02:14:36;;;;;;;14.80;11.63;;;8.30;99.90;;;;;;5055409;28;20202;-88
2022/11/12 02:17:04;;;;;;;14.87;11.57;;;8.30;99.90;;;;;;5055633;28;20191;-88
2022/11/12 02:19:37;;;;;;;12.93;10.73;;;8.30;99.90;;;;;;5055586;28;20207;-89
2022/11/12 02:22:05;;;;;;;14.67;11.30;;;8.20;99.90;;;;;;5055285;28;20213;-89
2022/11/12 02:24:36;;;;;;;17.43;11.37;;;8.20;99.90;;;;;;5055387;28;20198;-89
2022/11/12 02:27:05;;;;;;;12.37;11.03;;;8.20;99.90;;;;;;5056163;28;20207;-90
2022/11/12 02:29:34;;;;;;;16.93;11.20;;;8.20;99.90;;;;;;5055660;28;20221;-90
2022/11/12 02:32:04;;;;;;;13.50;10.87;;;8.10;99.90;;;;;;5055511;28;20195;-88
2022/11/12 02:34:32;;;;;;;15.37;10.77;;;8.10;99.90;;;;;;5055500;28;20241;-91
2022/11/12 02:37:01;;;;;;;15.00;11.43;;;8.10;99.90;;;;;;5055437;28;20210;-90
2022/11/12 02:39:39;;;;;;;12.33;10.30;;;8.10;99.90;;;;;;5055373;28;20214;-90
2022/11/12 02:42:07;;;;;;;15.87;11.13;;;8.10;99.90;;;;;;5055395;28;20203;-88
2022/11/12 02:44:34;;;;;;;15.17;10.43;;;8.00;99.90;;;;;;5055475;28;20198;-89
2022/11/12 02:47:00;;;;;;;13.77;10.60;;;8.00;99.90;;;;;;5055117;28;20203;-88
2022/11/12 02:49:27;;;;;;;15.93;11.23;;;8.00;99.90;;;;;;5055265;28;20187;-89
2022/11/12 02:51:54;;;;;;;18.27;11.57;;;7.90;99.90;;;;;;5054919;28;20657;-87
2022/11/12 02:54:22;;;;;;;13.90;9.97;;;8.00;99.90;;;;;;5054759;28;20225;-90
2022/11/12 02:56:50;;;;;;;14.20;10.43;;;7.90;99.90;;;;;;5055311;28;20198;-90
2022/11/12 02:59:23;;;;;;;12.03;10.23;;;7.90;99.90;;;;;;5055068;28;20531;-90
2022/11/12 03:01:52;;;;;;;12.40;9.73;;;8.00;99.90;;;;;;5055322;28;20205;-90
2022/11/12 03:04:18;;;;;;;13.30;10.13;;;7.70;99.90;;;;;;5054992;28;20646;-89
2022/11/12 03:06:45;;;;;;;11.10;9.80;;;7.70;99.90;;;;;;5055083;28;20222;-89
2022/11/12 03:09:12;;;;;;;12.97;9.60;;;7.80;99.90;;;;;;5054881;28;20197;-89
2022/11/12 03:11:39;;;;;;;12.37;10.17;;;7.70;99.90;;;;;;5054734;28;20570;-89
2022/11/12 03:14:07;;;;;;;12.20;9.70;;;7.70;99.90;;;;;;5054442;28;20226;-90
2022/11/12 03:16:34;;;;;;;13.40;10.03;;;7.70;99.90;;;;;;5054392;28;20190;-90
2022/11/12 03:19:01;;;;;;;12.37;9.93;;;7.70;99.90;;;;;;5054290;28;20206;-89
2022/11/12 03:21:28;;;;;;;15.10;9.90;;;7.70;99.90;;;;;;5054571;28;20198;-88
2022/11/12 03:23:55;;;;;;;14.40;10.33;;;7.70;99.90;;;;;;5054410;28;20202;-92
2022/11/12 03:26:21;;;;;;;13.63;10.37;;;7.60;99.90;;;;;;5054305;28;20209;-89
2022/11/12 03:28:50;;;;;;;13.17;10.63;;;7.60;99.90;;;;;;5054545;28;20198;-88
2022/11/12 03:31:19;;;;;;;12.03;9.73;;;7.50;99.90;;;;;;5054527;28;20672;-87
2022/11/12 03:33:49;;;;;;;13.53;9.77;;;7.50;99.90;;;;;;5054583;28;20232;-91
2022/11/12 03:36:22;;;;;;;15.17;10.00;;;7.40;99.90;;;;;;5054297;28;20201;-88
2022/11/12 03:38:50;;;;;;;14.37;10.13;;;7.30;99.90;;;;;;5054116;28;20210;-89
2022/11/12 03:41:17;;;;;;;14.83;9.73;;;7.30;99.90;;;;;;5054577;28;20194;-90
2022/11/12 03:43:45;;;;;;;12.47;10.27;;;7.20;99.90;;;;;;5054200;28;20209;-90
2022/11/12 03:46:12;;;;;;;16.23;10.43;;;7.20;99.90;;;;;;5054450;28;20187;-90
2022/11/12 03:48:40;;;;;;;13.80;9.73;;;7.30;99.90;;;;;;5054152;28;20204;-90
2022/11/12 03:51:07;;;;;;;10.70;9.50;;;7.20;99.90;;;;;;5049370;28;20205;-91
2022/11/12 03:53:34;;;;;;;18.00;10.30;;;7.20;99.90;;;;;;5044651;28;20700;-91
2022/11/12 03:56:01;;;;;;;10.97;9.87;;;7.20;99.90;;;;;;5053483;28;20198;-91
2022/11/12 03:58:28;;;;;;;10.80;9.50;;;7.20;99.90;;;;;;5054030;28;20199;-91
2022/11/12 04:00:55;;;;;;;12.20;9.33;;;7.10;99.90;;;;;;5053407;28;20202;-89
2022/11/12 04:03:22;;;;;;;15.37;9.03;;;7.10;99.90;;;;;;5053834;28;20207;-90
2022/11/12 04:08:39;;;;;;;10.87;9.07;;;7.00;99.90;;;;;;5053919;28;20305;-90
2022/11/12 04:11:11;;;;;;;10.97;9.43;;;7.00;99.90;;;;;;5053706;28;20642;-90
2022/11/12 04:13:39;;;;;;;10.23;8.73;;;7.00;99.90;;;;;;5053489;28;20616;-89
2022/11/12 04:21:50;;;;;;;12.80;9.60;;;7.00;99.90;;;;;;5053179;28;20567;-90
2022/11/12 04:27:05;;;;;;;11.10;9.67;;;6.90;99.90;;;;;;5029244;28;20641;-91
2022/11/12 04:32:22;;;;;;;11.70;8.97;;;6.70;99.90;;;;;;5042114;28;20277;-91
2022/11/12 04:34:51;;;;;;;10.40;9.03;;;6.80;99.90;;;;;;5052971;28;20238;-91
2022/11/12 04:37:19;;;;;;;11.00;9.23;;;6.70;99.90;;;;;;5053399;28;20203;-91
2022/11/12 04:39:47;;;;;;;12.77;9.10;;;6.80;99.90;;;;;;5053270;28;20222;-92
2022/11/12 04:45:02;;;;;;;9.93;8.93;;;6.80;99.90;;;;;;5057642;28;20193;-90
2022/11/12 04:47:33;;;;;;;10.77;9.30;;;6.80;99.90;;;;;;5057733;28;20197;-91
2022/11/12 04:50:12;;;;;;;10.30;9.20;;;6.70;99.90;;;;;;5056792;28;20206;-90
2022/11/12 04:52:40;;;;;;;10.03;8.50;;;6.70;99.90;;;;;;5057177;28;20642;-88
2022/11/12 04:55:08;;;;;;;12.53;9.23;;;6.60;99.90;;;;;;5057319;28;20222;-90
2022/11/12 04:57:35;;;;;;;9.57;8.43;;;6.60;99.90;;;;;;5057198;28;20608;-90
2022/11/12 05:00:02;;;;;;;11.60;8.30;;;6.70;99.90;;;;;;5056941;28;20212;-87
2022/11/12 05:02:29;;;;;;;13.67;9.50;;;6.60;99.90;;;;;;5057413;28;20191;-88
2022/11/12 05:04:57;;;;;;;12.17;8.73;;;6.60;99.90;;;;;;5056547;28;20206;-88
2022/11/12 05:07:24;;;;;;;14.97;8.90;;;6.60;99.90;;;;;;5056851;28;20218;-88
2022/11/12 05:09:52;;;;;;;11.70;9.90;;;6.60;99.90;;;;;;5056968;28;20213;-90
2022/11/12 05:12:18;;;;;;;12.30;9.73;;;6.50;99.90;;;;;;5056641;28;20215;-86
2022/11/12 05:14:45;;;;;;;11.20;8.83;;;6.50;99.90;;;;;;5056429;28;20230;-90
2022/11/12 05:17:12;;;;;;;12.53;10.00;;;6.40;99.90;;;;;;5056361;28;20210;-89
2022/11/12 05:19:39;;;;;;;11.93;9.70;;;6.40;99.90;;;;;;5056247;28;20213;-88
2022/11/12 05:22:05;;;;;;;12.03;8.90;;;6.40;99.90;;;;;;5056660;28;20213;-89
2022/11/12 05:24:33;;;;;;;11.40;8.63;;;6.40;99.90;;;;;;5056371;28;20211;-88
2022/11/12 05:27:07;;;;;;;11.67;9.27;;;6.40;99.90;;;;;;5056474;28;20187;-87
2022/11/12 05:29:34;;;;;;;10.60;8.97;;;6.40;99.90;;;;;;5056563;28;20558;-87
2022/11/12 05:32:01;;;;;;;9.83;8.53;;;6.40;99.90;;;;;;5056094;28;20191;-88
2022/11/12 05:34:29;;;;;;;10.50;8.53;;;6.40;99.90;;;;;;5056199;28;20230;-89
2022/11/12 05:36:56;;;;;;;10.03;8.63;;;6.30;99.90;;;;;;5056187;28;20238;-89
2022/11/12 05:39:23;;;;;;;12.80;9.60;;;6.40;99.90;;;;;;5055796;28;20221;-87
2022/11/12 05:41:49;;;;;;;11.90;9.70;;;6.30;99.90;;;;;;5055493;28;20549;-88
2022/11/12 05:44:21;;;;;;;13.30;9.27;;;6.30;99.90;;;;;;5056247;28;20203;-91
2022/11/12 05:46:49;;;;;;;11.00;9.77;;;6.30;99.90;;;;;;5055969;28;20206;-88
2022/11/12 05:49:16;;;;;;;11.93;9.37;;;6.30;99.90;;;;;;5055987;28;20260;-89
2022/11/12 05:51:44;;;;;;;11.83;9.30;;;6.30;99.90;;;;;;5055322;28;20198;-89
2022/11/12 05:54:15;;;;;;;13.70;9.97;;;6.30;99.90;;;;;;5055390;28;20233;-90
2022/11/12 05:56:43;;;;;;;12.27;10.17;;;6.30;99.90;;;;;;5055736;28;20202;-90
2022/11/12 05:59:13;;;;;;;11.70;9.20;;;6.30;99.90;;;;;;5055993;28;20206;-89
2022/11/12 06:01:43;;;;;;;12.83;9.70;;;6.30;99.90;;;;;;5049187;28;20213;-88
2022/11/12 06:04:14;;;;;;;13.70;9.63;;;6.30;99.90;;;;;;5038128;28;20575;-87
2022/11/12 06:06:42;;;;;;;12.93;9.97;;;6.40;99.90;;;;;;5041204;28;20222;-88
2022/11/12 06:09:09;;;;;;;14.67;9.93;;;6.30;99.90;;;;;;5055129;28;20198;-88
2022/11/12 06:11:38;;;;;;;11.10;9.50;;;6.30;99.90;;;;;;5055490;28;20206;-87
2022/11/12 06:14:06;;;;;;;12.20;9.70;;;6.30;99.90;;;;;;5055175;28;20292;-87
2022/11/12 06:16:33;;;;;;;11.93;9.10;;;6.20;99.90;;;;;;5055090;28;20210;-87
2022/11/12 06:19:01;;;;;;;10.97;9.77;;;6.20;99.90;;;;;;5054836;28;20202;-87
2022/11/12 06:21:28;;;;;;;11.17;8.83;;;6.30;99.90;;;;;;5055325;28;20205;-88
2022/11/12 06:23:58;;;;;;;10.90;8.40;;;6.30;99.90;;;;;;5054719;28;20672;-87
2022/11/12 06:26:27;;;;;;;11.23;9.27;;;6.30;99.90;;;;;;5041702;28;20202;-89
2022/11/12 06:28:54;;;;;;;15.07;9.57;;;6.30;99.90;;;;;;5055014;28;20199;-88
2022/11/12 06:31:23;;;;;;;10.73;9.50;;;6.30;99.90;;;;;;5054834;28;20201;-89
2022/11/12 06:33:50;;;;;;;11.60;8.97;;;6.40;99.90;;;;;;5054505;28;20230;-88
2022/11/12 06:36:20;;;;;;;10.60;9.10;;;6.40;99.90;;;;;;5036806;28;20206;-88
2022/11/12 06:38:47;;;;;;;11.07;9.60;;;6.40;99.90;;;;;;5054946;28;20214;-90
2022/11/12 06:41:15;;;;;;;11.87;9.53;;;6.40;99.90;;;;;;5054951;28;20206;-86
2022/11/12 06:43:43;;;;;;;10.17;8.90;;;6.40;99.90;;;;;;5054686;28;20210;-87
2022/11/12 06:46:13;;;;;;;12.53;9.40;;;6.30;99.90;;;;;;5054233;28;20559;-88
2022/11/12 06:48:40;;;;;;;14.83;9.63;;;6.30;99.90;;;;;;5054660;28;20211;-89
2022/11/12 06:51:11;;;;;;;13.57;10.00;;;6.30;99.90;;;;;;5046634;28;20210;-88
2022/11/12 06:53:39;;;;;;;12.10;9.77;;;6.30;99.90;;;;;;5049435;28;20554;-87
2022/11/12 06:56:13;;;;;;;14.20;11.03;;;6.20;99.90;;;;;;5054699;28;20195;-89
2022/11/12 06:58:40;;;;;;;18.03;12.63;;;6.20;99.90;;;;;;5054168;28;20205;-89
2022/11/12 07:01:09;;;;;;;22.03;17.73;;;6.20;99.90;;;;;;5053473;28;20198;-88
2022/11/12 07:03:36;;;;;;;19.53;13.77;;;6.30;99.90;;;;;;5056462;28;20199;-88
2022/11/12 07:06:09;;;;;;;19.27;15.03;;;6.30;99.90;;;;;;5051207;28;20229;-87
2022/11/12 07:08:37;;;;;;;22.10;15.17;;;6.30;99.90;;;;;;5052989;28;20198;-88
2022/11/12 07:11:06;;;;;;;22.50;13.47;;;6.40;99.90;;;;;;5046101;28;20199;-89
2022/11/12 07:13:35;;;;;;;19.33;15.07;;;6.30;99.90;;;;;;5049138;28;20202;-86
2022/11/12 07:16:02;;;;;;;20.13;16.30;;;6.30;99.90;;;;;;5054240;28;20210;-88
2022/11/12 07:18:30;;;;;;;17.77;13.60;;;6.30;99.90;;;;;;5054222;28;20217;-87
2022/11/12 07:21:02;;;;;;;13.80;10.57;;;6.30;99.90;;;;;;5053985;28;20210;-88
2022/11/12 07:23:31;;;;;;;12.57;11.23;;;6.30;99.90;;;;;;5054071;28;20289;-89
2022/11/12 07:26:00;;;;;;;17.77;12.03;;;6.40;99.90;;;;;;5053815;28;20207;-87
2022/11/12 07:28:29;;;;;;;15.00;13.40;;;6.40;99.90;;;;;;5053063;28;20688;-89
2022/11/12 07:30:59;;;;;;;23.03;17.87;;;6.50;99.90;;;;;;5053751;28;20203;-88
2022/11/12 07:33:26;;;;;;;18.83;14.77;;;6.50;99.90;;;;;;5053842;28;20203;-89
2022/11/12 07:36:00;;;;;;;22.07;17.67;;;6.60;99.90;;;;;;5053738;28;20225;-86
2022/11/12 07:38:28;;;;;;;39.20;31.53;;;6.70;99.90;;;;;;5046097;28;20218;-87
2022/11/12 07:41:00;;;;;;;23.90;20.37;;;6.70;99.90;;;;;;5040292;28;20203;-88
2022/11/12 07:43:29;;;;;;;20.60;16.00;;;6.70;99.90;;;;;;5055964;28;20198;-89
2022/11/12 07:45:58;;;;;;;18.47;13.33;;;6.80;99.90;;;;;;5053178;28;20222;-87
2022/11/12 07:48:25;;;;;;;16.27;12.77;;;6.80;99.90;;;;;;5053255;28;20202;-87
2022/11/12 07:50:52;;;;;;;16.57;13.57;;;6.80;99.90;;;;;;5053502;28;20217;-88
2022/11/12 07:53:19;;;;;;;16.10;13.97;;;6.90;99.90;;;;;;5052619;28;20210;-88
2022/11/12 07:55:53;;;;;;;15.47;13.40;;;6.90;99.90;;;;;;5039555;28;20284;-88
2022/11/12 07:58:21;;;;;;;16.07;12.47;;;7.00;99.90;;;;;;5053091;28;20303;-88
2022/11/12 08:00:56;;;;;;;17.87;12.53;;;7.10;99.90;;;;;;5053729;28;20202;-89
2022/11/12 08:03:26;;;;;;;17.03;12.50;;;7.20;99.90;;;;;;5053818;28;20206;-92
2022/11/12 08:05:54;;;;;;;19.03;15.30;;;7.30;99.90;;;;;;5053471;28;20241;-92
2022/11/12 08:08:22;;;;;;;19.90;14.10;;;7.30;99.90;;;;;;5053874;28;20202;-92
2022/11/12 08:10:48;;;;;;;22.50;12.20;;;7.40;99.90;;;;;;5053909;28;20221;-88
2022/11/12 08:13:15;;;;;;;24.63;14.90;;;7.30;99.90;;;;;;5045704;28;20210;-89
2022/11/12 08:15:42;;;;;;;17.50;12.67;;;7.30;99.90;;;;;;5046128;28;20234;-89
2022/11/12 08:18:14;;;;;;;21.40;14.07;;;7.40;99.90;;;;;;5055851;28;20203;-89
2022/11/12 08:20:41;;;;;;;17.80;13.53;;;7.30;99.90;;;;;;5055547;28;20201;-89
2022/11/12 08:23:08;;;;;;;23.90;19.40;;;7.40;99.90;;;;;;5056426;28;20228;-88
2022/11/12 08:25:41;;;;;;;22.77;17.47;;;7.50;99.90;;;;;;5053356;28;20715;-87
2022/11/12 08:28:08;;;;;;;17.97;14.87;;;7.60;99.90;;;;;;5052867;28;20203;-89
2022/11/12 08:30:36;;;;;;;18.80;13.20;;;7.70;99.90;;;;;;5053209;28;20206;-90
2022/11/12 08:33:06;;;;;;;24.40;16.13;;;7.80;99.90;;;;;;5052901;28;20210;-89
2022/11/12 08:35:38;;;;;;;26.37;16.53;;;7.90;99.90;;;;;;5052969;28;20218;-89
2022/11/12 08:38:06;;;;;;;13.37;11.97;;;7.90;99.90;;;;;;5053303;28;20229;-93
2022/11/12 08:40:39;;;;;;;18.03;12.70;;;7.90;99.90;;;;;;5053587;28;20202;-93
2022/11/12 08:43:07;;;;;;;16.07;12.53;;;8.00;99.90;;;;;;5053904;28;20213;-92
2022/11/12 08:45:41;;;;;;;14.07;11.40;;;8.10;99.90;;;;;;5054310;28;20622;-92
2022/11/12 08:48:13;;;;;;;14.23;12.37;;;8.20;99.90;;;;;;5060500;28;20210;-91
2022/11/12 08:50:42;;;;;;;13.83;12.40;;;8.20;99.90;;;;;;5059626;28;20229;-88
2022/11/12 08:53:12;;;;;;;17.57;15.83;;;8.30;99.90;;;;;;5052225;28;20501;-91
2022/11/12 08:55:40;;;;;;;15.80;12.77;;;8.60;99.90;;;;;;5053246;28;20226;-91
2022/11/12 08:58:09;;;;;;;15.70;12.30;;;8.70;99.90;;;;;;5053613;28;20205;-87
2022/11/12 09:00:38;;;;;;;14.77;12.17;;;8.80;99.90;;;;;;5053100;28;20198;-89
2022/11/12 09:03:12;;;;;;;14.30;11.80;;;8.80;99.90;;;;;;5039413;28;20214;-90
2022/11/12 09:05:47;;;;;;;13.27;11.27;;;8.90;99.90;;;;;;5048545;28;20236;-92
2022/11/12 09:08:18;;;;;;;14.87;13.03;;;9.10;99.90;;;;;;5043202;28;20213;-91
2022/11/12 09:10:46;;;;;;;14.60;13.03;;;9.20;99.90;;;;;;5052883;28;20556;-90
2022/11/12 09:13:17;;;;;;;17.40;14.00;;;9.10;99.90;;;;;;5047777;28;20215;-91
2022/11/12 09:15:49;;;;;;;19.60;13.33;;;9.20;99.90;;;;;;5053110;28;20227;-90
2022/11/12 09:18:18;;;;;;;16.77;13.07;;;9.30;99.90;;;;;;5053287;28;20199;-90
2022/11/12 09:20:49;;;;;;;16.27;13.03;;;9.40;99.90;;;;;;5053058;28;20559;-91
2022/11/12 09:23:17;;;;;;;16.17;12.33;;;9.50;99.90;;;;;;5052685;28;20199;-90
2022/11/12 09:25:45;;;;;;;14.63;11.17;;;9.40;99.90;;;;;;5053234;28;20272;-90
2022/11/12 09:28:14;;;;;;;14.90;11.20;;;9.50;99.90;;;;;;5055413;28;20206;-89
2022/11/12 09:30:45;;;;;;;14.73;12.00;;;9.50;99.90;;;;;;5056128;28;20211;-85
2022/11/12 09:33:12;;;;;;;15.03;12.23;;;9.60;99.90;;;;;;5055529;28;20202;-85
2022/11/12 09:35:38;;;;;;;11.90;10.70;;;9.90;99.90;;;;;;5055865;28;20237;-85
2022/11/12 09:38:07;;;;;;;11.50;10.37;;;10.00;99.90;;;;;;5055899;28;20211;-84
2022/11/12 09:40:55;;;;;;;13.77;10.47;;;10.10;99.90;;;;;;5055621;28;20207;-85
2022/11/12 09:43:29;;;;;;;11.10;9.97;;;10.10;99.90;;;;;;5055944;28;20202;-85
2022/11/12 09:46:01;;;;;;;11.57;9.40;;;10.00;99.90;;;;;;5055691;28;20207;-86
2022/11/12 09:48:34;;;;;;;13.17;9.27;;;10.00;99.90;;;;;;5055823;28;20202;-86
2022/11/12 09:51:06;;;;;;;9.80;8.90;;;10.00;99.90;;;;;;5055772;28;20669;-86
2022/11/12 09:53:40;;;;;;;10.57;9.57;;;9.90;99.90;;;;;;5055500;28;20202;-88
2022/11/12 09:56:10;;;;;;;8.60;7.80;;;9.90;99.90;;;;;;5055684;28;20219;-89
2022/11/12 09:58:37;;;;;;;8.73;7.93;;;9.80;99.90;;;;;;5055606;28;20199;-87
2022/11/12 10:01:13;;;;;;;8.57;7.80;;;9.80;99.90;;;;;;5055766;28;20209;-89
2022/11/12 10:03:49;;;;;;;10.77;8.47;;;10.00;99.90;;;;;;5055551;28;20200;-88
2022/11/12 10:06:20;;;;;;;8.40;7.57;;;10.10;99.90;;;;;;5055911;28;20229;-88
2022/11/12 10:08:52;;;;;;;8.10;7.30;;;10.30;99.90;;;;;;5055442;28;20229;-88
2022/11/12 10:14:37;;;;;;;7.30;6.60;;;10.40;99.90;;;;;;5042867;28;20657;-86
2022/11/12 10:17:10;;;;;;;7.17;6.53;;;10.50;99.90;;;;;;5059960;28;20218;-86
2022/11/12 10:19:49;;;;;;;8.40;7.53;;;10.60;99.90;;;;;;5059617;28;20294;-85
2022/11/12 10:22:29;;;;;;;7.50;6.80;;;10.70;99.90;;;;;;5058274;28;20271;-84
2022/11/12 10:24:59;;;;;;;7.07;6.43;;;11.00;99.90;;;;;;5058542;28;20211;-85
2022/11/12 10:27:33;;;;;;;7.13;6.53;;;11.00;99.90;;;;;;5058303;28;20212;-84
2022/11/12 10:30:03;;;;;;;7.30;6.40;;;11.20;99.90;;;;;;5058853;28;20204;-85
2022/11/12 10:32:30;;;;;;;6.63;6.10;;;11.30;99.90;;;;;;5057433;28;20196;-87
2022/11/12 10:34:56;;;;;;;8.40;6.30;;;11.30;99.90;;;;;;5055436;28;20237;-85
2022/11/12 10:37:29;;;;;;;8.47;6.80;;;11.40;99.90;;;;;;5054875;28;20208;-84
2022/11/12 10:39:57;;;;;;;6.97;6.37;;;11.50;99.90;;;;;;5053947;28;20211;-85
2022/11/12 10:42:24;;;;;;;11.43;7.27;;;11.50;99.90;;;;;;5054520;28;20664;-83
2022/11/12 10:44:51;;;;;;;7.23;6.53;;;11.60;99.90;;;;;;5054679;28;20652;-84
2022/11/12 10:47:25;;;;;;;7.40;6.70;;;11.70;99.90;;;;;;5054737;28;20205;-84
2022/11/12 10:50:18;;;;;;;7.97;6.30;;;11.80;99.90;;;;;;5054401;28;20212;-85
2022/11/12 10:52:57;;;;;;;6.97;6.37;;;11.90;99.90;;;;;;5054074;28;20216;-86
2022/11/12 10:55:27;;;;;;;6.73;6.13;;;11.80;99.90;;;;;;5054959;28;20587;-86
2022/11/12 10:58:15;;;;;;;7.50;6.77;;;11.60;99.90;;;;;;5054540;28;20201;-86
2022/11/12 11:00:58;;;;;;;6.73;6.13;;;11.70;99.90;;;;;;5054243;28;20296;-85
2022/11/12 11:03:26;;;;;;;7.40;6.77;;;11.90;99.90;;;;;;5054504;28;20207;-85
2022/11/12 11:05:56;;;;;;;7.80;6.77;;;11.90;99.90;;;;;;5054002;28;20231;-85
2022/11/12 11:08:41;;;;;;;7.33;6.63;;;11.90;99.90;;;;;;5054497;28;20209;-85
2022/11/12 11:11:21;;;;;;;6.40;5.90;;;11.90;99.90;;;;;;5054260;28;20288;-84
2022/11/12 11:13:49;;;;;;;7.13;5.83;;;11.90;99.90;;;;;;5053831;28;20210;-86
2022/11/12 11:16:17;;;;;;;8.23;5.97;;;12.10;99.90;;;;;;5054138;28;20684;-85
2022/11/12 11:18:47;;;;;;;6.80;6.13;;;12.20;99.90;;;;;;5053858;28;20437;-85
2022/11/12 11:21:31;;;;;;;8.57;6.07;;;12.30;99.90;;;;;;5053882;28;20678;-85
2022/11/12 11:24:07;;;;;;;6.40;5.90;;;12.30;99.90;;;;;;5054124;28;20210;-85
2022/11/12 11:26:46;;;;;;;6.47;5.93;;;12.50;99.90;;;;;;5054630;28;20216;-85
2022/11/12 11:29:27;;;;;;;6.07;5.57;;;12.50;99.90;;;;;;5054067;28;20216;-84
2022/11/12 11:31:59;;;;;;;6.17;5.60;;;12.60;99.90;;;;;;5053910;28;20209;-85
2022/11/12 11:34:37;;;;;;;6.50;5.87;;;12.70;99.90;;;;;;5053951;28;20194;-85
2022/11/12 11:37:12;;;;;;;6.50;5.90;;;12.70;99.90;;;;;;5054004;28;20590;-85
2022/11/12 11:39:48;;;;;;;6.50;5.93;;;12.70;99.90;;;;;;5053112;28;20209;-85
2022/11/12 11:42:35;;;;;;;6.47;5.90;;;12.80;99.90;;;;;;5054075;28;20217;-85
2022/11/12 11:45:12;;;;;;;6.10;5.60;;;12.90;99.90;;;;;;5053688;28;20653;-85
2022/11/12 11:47:47;;;;;;;6.87;6.20;;;13.00;99.90;;;;;;5067526;28;20201;-85
2022/11/12 11:50:25;;;;;;;8.02;6.63;;;13.00;99.90;;;;;;5051700;28;20437;-85
2022/11/12 11:53:01;;;;;;;6.07;5.57;;;13.00;99.90;;;;;;5053403;28;20217;-84
2022/11/12 11:55:37;;;;;;;6.73;5.53;;;13.10;99.90;;;;;;5053637;28;20244;-85
2022/11/12 11:58:18;;;;;;;8.20;5.70;;;13.20;99.90;;;;;;5053434;28;20560;-85
2022/11/12 12:00:52;;;;;;;5.33;4.93;;;13.20;99.90;;;;;;5053170;28;20217;-85
2022/11/12 12:03:25;;;;;;;6.57;5.23;;;13.30;99.90;;;;;;5053404;28;20202;-85
2022/11/12 12:06:12;;;;;;;5.47;5.07;;;13.40;99.90;;;;;;5053421;28;20241;-85
2022/11/12 12:08:59;;;;;;;6.20;5.10;;;13.60;99.90;;;;;;5053361;28;20617;-85
2022/11/12 12:11:34;;;;;;;5.87;5.10;;;13.50;99.90;;;;;;5052980;28;20580;-85
2022/11/12 12:14:15;;;;;;;6.60;5.93;;;13.60;99.90;;;;;;5053644;28;20209;-85
2022/11/12 12:16:52;;;;;;;5.10;4.70;;;13.70;99.90;;;;;;5053189;28;20727;-85
2022/11/12 12:19:30;;;;;;;5.90;5.40;;;13.60;99.90;;;;;;5053239;28;20205;-85
2022/11/12 12:22:01;;;;;;;4.97;4.60;;;13.60;99.90;;;;;;5053424;28;20293;-85
2022/11/12 12:24:31;;;;;;;5.40;4.97;;;13.60;99.90;;;;;;5053274;28;20205;-85
2022/11/12 12:27:03;;;;;;;5.80;5.30;;;13.70;99.90;;;;;;5053202;28;20210;-85
2022/11/12 12:29:37;;;;;;;5.47;5.03;;;13.80;99.90;;;;;;5053352;28;20202;-85
2022/11/12 12:32:12;;;;;;;5.10;4.60;;;13.90;99.90;;;;;;5053499;28;20206;-85
2022/11/12 12:34:42;;;;;;;7.33;5.13;;;14.00;99.90;;;;;;5052826;28;20662;-85
2022/11/12 12:37:17;;;;;;;5.57;5.10;;;14.00;99.90;;;;;;5052989;28;20236;-85
2022/11/12 12:39:52;;;;;;;5.30;4.90;;;14.10;99.90;;;;;;5052891;28;20203;-86
2022/11/12 12:42:26;;;;;;;5.67;5.10;;;14.10;99.90;;;;;;5053204;28;20206;-85
2022/11/12 12:45:00;;;;;;;7.87;5.20;;;14.20;99.90;;;;;;5052987;28;20218;-84
2022/11/12 12:47:29;;;;;;;5.67;5.17;;;14.30;99.90;;;;;;5052808;28;20541;-84
2022/11/12 12:49:57;;;;;;;5.17;4.77;;;14.40;99.90;;;;;;5053239;28;20214;-84
2022/11/12 12:52:24;;;;;;;7.00;5.20;;;14.40;99.90;;;;;;5053068;28;20215;-83
2022/11/12 12:54:58;;;;;;;5.63;4.83;;;14.40;99.90;;;;;;5052900;28;20206;-84
2022/11/12 12:57:32;;;;;;;5.00;4.50;;;14.50;99.90;;;;;;5052790;28;20231;-84
2022/11/12 13:00:31;;;;;;;5.33;4.87;;;14.60;99.90;;;;;;5052496;28;20231;-84
2022/11/12 13:02:58;;;;;;;5.40;5.00;;;14.60;99.90;;;;;;5052294;28;20207;-84
2022/11/12 13:05:28;;;;;;;5.10;4.63;;;14.60;99.90;;;;;;5056361;28;20211;-85
2022/11/12 13:07:58;;;;;;;7.23;5.20;;;14.70;99.90;;;;;;5056733;28;20212;-83
2022/11/12 13:10:46;;;;;;;6.30;5.70;;;14.70;99.90;;;;;;5056677;28;20207;-84
2022/11/12 13:13:30;;;;;;;4.97;4.47;;;14.70;99.90;;;;;;5056837;28;20261;-84
2022/11/12 13:15:59;;;;;;;6.18;5.28;;;14.70;99.90;;;;;;5043236;28;20456;-85
2022/11/12 13:19:01;;;;;;;6.37;4.77;;;14.60;99.90;;;;;;5056046;28;20203;-84